sensor_id;sensor_type;location;lat;lon;timestamp;temperature;humidity
46488;DHT22;32202;48.780;9.204;2023-03-31T00:01:10;12.50;84.30
46488;DHT22;32202;48.780;9.204;2023-03-31T00:03:36;12.50;84.00
46488;DHT22;32202;48.780;9.204;2023-03-31T00:06:03;12.50;84.30
46488;DHT22;32202;48.780;9.204;2023-03-31T00:08:30;12.40;84.50
46488;DHT22;32202;48.780;9.204;2023-03-31T00:11:00;12.50;84.10
46488;DHT22;32202;48.780;9.204;2023-03-31T00:13:26;12.60;83.70
46488;DHT22;32202;48.780;9.204;2023-03-31T00:15:55;12.60;83.70
46488;DHT22;32202;48.780;9.204;2023-03-31T00:18:23;12.60;83.60
46488;DHT22;32202;48.780;9.204;2023-03-31T00:20:51;12.60;83.50
46488;DHT22;32202;48.780;9.204;2023-03-31T00:23:17;12.60;83.20
46488;DHT22;32202;48.780;9.204;2023-03-31T00:25:43;12.60;83.10
46488;DHT22;32202;48.780;9.204;2023-03-31T00:28:08;12.60;83.20
46488;DHT22;32202;48.780;9.204;2023-03-31T00:30:34;12.60;83.30
46488;DHT22;32202;48.780;9.204;2023-03-31T00:33:00;12.70;82.80
46488;DHT22;32202;48.780;9.204;2023-03-31T00:35:26;12.60;83.00
46488;DHT22;32202;48.780;9.204;2023-03-31T00:37:51;12.70;82.70
46488;DHT22;32202;48.780;9.204;2023-03-31T00:40:18;12.70;82.50
46488;DHT22;32202;48.780;9.204;2023-03-31T00:42:43;12.70;82.60
46488;DHT22;32202;48.780;9.204;2023-03-31T00:47:43;12.70;82.60
46488;DHT22;32202;48.780;9.204;2023-03-31T00:50:13;12.70;82.60
46488;DHT22;32202;48.780;9.204;2023-03-31T00:52:39;12.80;82.20
46488;DHT22;32202;48.780;9.204;2023-03-31T00:55:07;12.80;81.50
46488;DHT22;32202;48.780;9.204;2023-03-31T00:57:34;12.80;81.00
46488;DHT22;32202;48.780;9.204;2023-03-31T01:00:03;12.90;80.70
46488;DHT22;32202;48.780;9.204;2023-03-31T01:02:47;12.90;80.70
46488;DHT22;32202;48.780;9.204;2023-03-31T01:05:17;12.90;80.70
46488;DHT22;32202;48.780;9.204;2023-03-31T01:07:45;12.90;80.70
46488;DHT22;32202;48.780;9.204;2023-03-31T01:10:12;12.90;80.90
46488;DHT22;32202;48.780;9.204;2023-03-31T01:12:39;12.90;80.70
46488;DHT22;32202;48.780;9.204;2023-03-31T01:15:05;12.90;80.70
46488;DHT22;32202;48.780;9.204;2023-03-31T01:17:31;12.90;80.50
46488;DHT22;32202;48.780;9.204;2023-03-31T01:20:23;12.90;80.60
46488;DHT22;32202;48.780;9.204;2023-03-31T01:28:59;12.90;80.80
46488;DHT22;32202;48.780;9.204;2023-03-31T01:31:25;12.90;80.90
46488;DHT22;32202;48.780;9.204;2023-03-31T01:34:04;12.90;81.10
46488;DHT22;32202;48.780;9.204;2023-03-31T01:36:46;12.90;80.80
46488;DHT22;32202;48.780;9.204;2023-03-31T01:42:12;12.90;80.80
46488;DHT22;32202;48.780;9.204;2023-03-31T01:47:15;12.90;80.50
46488;DHT22;32202;48.780;9.204;2023-03-31T01:52:19;12.80;80.70
46488;DHT22;32202;48.780;9.204;2023-03-31T01:54:47;12.90;80.60
46488;DHT22;32202;48.780;9.204;2023-03-31T01:59:51;12.90;80.80
46488;DHT22;32202;48.780;9.204;2023-03-31T02:02:26;12.80;81.20
46488;DHT22;32202;48.780;9.204;2023-03-31T02:04:56;12.80;82.10
46488;DHT22;32202;48.780;9.204;2023-03-31T02:07:58;12.70;82.20
46488;DHT22;32202;48.780;9.204;2023-03-31T02:10:17;12.70;82.60
46488;DHT22;32202;48.780;9.204;2023-03-31T02:12:43;12.70;83.00
46488;DHT22;32202;48.780;9.204;2023-03-31T02:15:10;12.60;83.50
46488;DHT22;32202;48.780;9.204;2023-03-31T02:17:39;12.60;84.40
46488;DHT22;32202;48.780;9.204;2023-03-31T02:20:08;12.50;85.10
46488;DHT22;32202;48.780;9.204;2023-03-31T02:22:36;12.50;85.90
46488;DHT22;32202;48.780;9.204;2023-03-31T02:25:03;12.50;86.20
46488;DHT22;32202;48.780;9.204;2023-03-31T02:27:31;12.50;86.90
46488;DHT22;32202;48.780;9.204;2023-03-31T02:29:58;12.50;87.60
46488;DHT22;32202;48.780;9.204;2023-03-31T02:32:27;12.50;89.10
46488;DHT22;32202;48.780;9.204;2023-03-31T02:34:54;12.30;90.00
46488;DHT22;32202;48.780;9.204;2023-03-31T02:37:20;12.30;90.40
46488;DHT22;32202;48.780;9.204;2023-03-31T02:39:46;12.20;90.80
46488;DHT22;32202;48.780;9.204;2023-03-31T02:42:13;12.20;91.10
46488;DHT22;32202;48.780;9.204;2023-03-31T02:44:39;12.10;91.50
46488;DHT22;32202;48.780;9.204;2023-03-31T02:47:05;12.10;91.60
46488;DHT22;32202;48.780;9.204;2023-03-31T02:49:31;12.10;91.30
46488;DHT22;32202;48.780;9.204;2023-03-31T02:52:07;12.10;91.80
46488;DHT22;32202;48.780;9.204;2023-03-31T02:57:17;12.10;91.90
46488;DHT22;32202;48.780;9.204;2023-03-31T03:08:14;11.90;92.50
46488;DHT22;32202;48.780;9.204;2023-03-31T03:15:46;11.90;93.00
46488;DHT22;32202;48.780;9.204;2023-03-31T03:18:11;11.90;93.20
46488;DHT22;32202;48.780;9.204;2023-03-31T03:20:38;11.80;93.50
46488;DHT22;32202;48.780;9.204;2023-03-31T03:23:04;11.70;93.80
46488;DHT22;32202;48.780;9.204;2023-03-31T03:25:30;11.70;93.80
46488;DHT22;32202;48.780;9.204;2023-03-31T03:27:55;11.60;94.30
46488;DHT22;32202;48.780;9.204;2023-03-31T03:30:21;11.60;94.50
46488;DHT22;32202;48.780;9.204;2023-03-31T03:32:46;11.50;94.80
46488;DHT22;32202;48.780;9.204;2023-03-31T03:35:12;11.40;95.30
46488;DHT22;32202;48.780;9.204;2023-03-31T03:37:37;11.30;95.40
46488;DHT22;32202;48.780;9.204;2023-03-31T03:40:03;11.40;95.70
46488;DHT22;32202;48.780;9.204;2023-03-31T03:42:30;11.40;95.50
46488;DHT22;32202;48.780;9.204;2023-03-31T03:44:56;11.40;95.80
46488;DHT22;32202;48.780;9.204;2023-03-31T03:47:21;11.50;95.50
46488;DHT22;32202;48.780;9.204;2023-03-31T03:49:47;11.50;95.80
46488;DHT22;32202;48.780;9.204;2023-03-31T03:52:13;11.50;95.90
46488;DHT22;32202;48.780;9.204;2023-03-31T03:54:39;11.40;95.80
46488;DHT22;32202;48.780;9.204;2023-03-31T03:57:04;11.40;95.90
46488;DHT22;32202;48.780;9.204;2023-03-31T03:59:31;11.40;96.00
46488;DHT22;32202;48.780;9.204;2023-03-31T04:01:57;11.40;96.10
46488;DHT22;32202;48.780;9.204;2023-03-31T04:04:22;11.40;96.20
46488;DHT22;32202;48.780;9.204;2023-03-31T04:06:48;11.40;96.30
46488;DHT22;32202;48.780;9.204;2023-03-31T04:09:13;11.20;96.70
46488;DHT22;32202;48.780;9.204;2023-03-31T04:11:39;11.20;97.10
46488;DHT22;32202;48.780;9.204;2023-03-31T04:14:04;11.20;97.70
46488;DHT22;32202;48.780;9.204;2023-03-31T04:16:30;11.10;97.60
46488;DHT22;32202;48.780;9.204;2023-03-31T04:18:56;11.00;98.10
46488;DHT22;32202;48.780;9.204;2023-03-31T04:21:24;10.90;98.60
46488;DHT22;32202;48.780;9.204;2023-03-31T04:23:50;10.80;99.00
46488;DHT22;32202;48.780;9.204;2023-03-31T04:26:23;10.80;99.40
46488;DHT22;32202;48.780;9.204;2023-03-31T04:28:55;10.80;99.60
46488;DHT22;32202;48.780;9.204;2023-03-31T04:31:22;10.90;99.50
46488;DHT22;32202;48.780;9.204;2023-03-31T04:33:51;10.90;99.50
46488;DHT22;32202;48.780;9.204;2023-03-31T04:36:17;11.00;99.30
46488;DHT22;32202;48.780;9.204;2023-03-31T04:38:45;11.00;98.90
46488;DHT22;32202;48.780;9.204;2023-03-31T04:41:12;11.10;98.90
46488;DHT22;32202;48.780;9.204;2023-03-31T04:43:37;11.10;98.50
46488;DHT22;32202;48.780;9.204;2023-03-31T04:46:03;11.20;98.60
46488;DHT22;32202;48.780;9.204;2023-03-31T04:48:28;11.20;98.20
46488;DHT22;32202;48.780;9.204;2023-03-31T04:50:54;11.30;98.20
46488;DHT22;32202;48.780;9.204;2023-03-31T04:53:19;11.30;97.80
46488;DHT22;32202;48.780;9.204;2023-03-31T04:55:45;11.30;98.00
46488;DHT22;32202;48.780;9.204;2023-03-31T04:58:10;11.40;98.10
46488;DHT22;32202;48.780;9.204;2023-03-31T05:00:36;11.40;97.90
46488;DHT22;32202;48.780;9.204;2023-03-31T05:03:01;11.30;98.00
46488;DHT22;32202;48.780;9.204;2023-03-31T05:05:27;11.40;98.20
46488;DHT22;32202;48.780;9.204;2023-03-31T05:07:53;11.40;97.60
46488;DHT22;32202;48.780;9.204;2023-03-31T05:10:18;11.40;97.00
46488;DHT22;32202;48.780;9.204;2023-03-31T05:12:44;11.40;97.10
46488;DHT22;32202;48.780;9.204;2023-03-31T05:15:09;11.50;97.10
46488;DHT22;32202;48.780;9.204;2023-03-31T05:17:35;11.40;97.40
46488;DHT22;32202;48.780;9.204;2023-03-31T05:20:04;11.50;97.50
46488;DHT22;32202;48.780;9.204;2023-03-31T05:22:32;11.40;98.30
46488;DHT22;32202;48.780;9.204;2023-03-31T05:24:58;11.40;98.80
46488;DHT22;32202;48.780;9.204;2023-03-31T05:27:23;11.50;99.70
46488;DHT22;32202;48.780;9.204;2023-03-31T05:29:48;11.50;99.90
46488;DHT22;32202;48.780;9.204;2023-03-31T05:32:15;11.50;99.90
46488;DHT22;32202;48.780;9.204;2023-03-31T05:34:40;11.50;99.90
46488;DHT22;32202;48.780;9.204;2023-03-31T05:37:07;11.60;99.90
46488;DHT22;32202;48.780;9.204;2023-03-31T05:39:33;11.50;99.90
46488;DHT22;32202;48.780;9.204;2023-03-31T05:41:58;11.40;99.90
46488;DHT22;32202;48.780;9.204;2023-03-31T05:44:24;11.30;99.90
46488;DHT22;32202;48.780;9.204;2023-03-31T05:46:54;11.30;99.90
46488;DHT22;32202;48.780;9.204;2023-03-31T05:49:19;11.30;99.90
46488;DHT22;32202;48.780;9.204;2023-03-31T05:51:45;11.40;99.90
46488;DHT22;32202;48.780;9.204;2023-03-31T05:54:11;11.40;99.90
46488;DHT22;32202;48.780;9.204;2023-03-31T05:56:36;11.50;99.90
46488;DHT22;32202;48.780;9.204;2023-03-31T05:59:02;11.50;99.90
46488;DHT22;32202;48.780;9.204;2023-03-31T06:01:27;11.50;99.90
46488;DHT22;32202;48.780;9.204;2023-03-31T06:03:54;11.50;99.90
46488;DHT22;32202;48.780;9.204;2023-03-31T06:06:19;11.50;99.90
46488;DHT22;32202;48.780;9.204;2023-03-31T06:08:45;11.50;99.90
46488;DHT22;32202;48.780;9.204;2023-03-31T06:11:15;11.50;99.90
46488;DHT22;32202;48.780;9.204;2023-03-31T06:13:41;11.50;99.90
46488;DHT22;32202;48.780;9.204;2023-03-31T06:16:08;11.50;99.90
46488;DHT22;32202;48.780;9.204;2023-03-31T06:18:34;11.40;99.90
46488;DHT22;32202;48.780;9.204;2023-03-31T06:21:00;11.50;99.90
46488;DHT22;32202;48.780;9.204;2023-03-31T06:23:26;11.50;99.90
46488;DHT22;32202;48.780;9.204;2023-03-31T06:25:51;11.50;99.90
46488;DHT22;32202;48.780;9.204;2023-03-31T06:28:17;11.50;99.90
46488;DHT22;32202;48.780;9.204;2023-03-31T06:30:43;11.60;99.90
46488;DHT22;32202;48.780;9.204;2023-03-31T06:33:08;11.60;99.90
46488;DHT22;32202;48.780;9.204;2023-03-31T06:35:38;11.60;99.90
46488;DHT22;32202;48.780;9.204;2023-03-31T06:38:03;11.60;99.90
46488;DHT22;32202;48.780;9.204;2023-03-31T06:40:29;11.60;99.90
46488;DHT22;32202;48.780;9.204;2023-03-31T06:42:54;11.50;99.90
46488;DHT22;32202;48.780;9.204;2023-03-31T06:45:20;11.50;99.90
46488;DHT22;32202;48.780;9.204;2023-03-31T06:47:46;11.50;99.90
46488;DHT22;32202;48.780;9.204;2023-03-31T06:50:11;11.40;99.90
46488;DHT22;32202;48.780;9.204;2023-03-31T06:52:37;11.40;99.90
46488;DHT22;32202;48.780;9.204;2023-03-31T06:55:03;11.30;99.90
46488;DHT22;32202;48.780;9.204;2023-03-31T06:57:28;11.30;99.90
46488;DHT22;32202;48.780;9.204;2023-03-31T06:59:55;11.40;99.90
46488;DHT22;32202;48.780;9.204;2023-03-31T07:02:21;11.40;99.90
46488;DHT22;32202;48.780;9.204;2023-03-31T07:04:46;11.40;99.90
46488;DHT22;32202;48.780;9.204;2023-03-31T07:07:12;11.30;99.90
46488;DHT22;32202;48.780;9.204;2023-03-31T07:09:37;11.20;99.90
46488;DHT22;32202;48.780;9.204;2023-03-31T07:12:03;11.20;99.90
46488;DHT22;32202;48.780;9.204;2023-03-31T07:14:29;11.30;99.90
46488;DHT22;32202;48.780;9.204;2023-03-31T07:16:55;11.20;99.90
46488;DHT22;32202;48.780;9.204;2023-03-31T07:19:20;11.20;99.90
46488;DHT22;32202;48.780;9.204;2023-03-31T07:21:47;11.20;99.90
46488;DHT22;32202;48.780;9.204;2023-03-31T07:24:12;11.20;99.90
46488;DHT22;32202;48.780;9.204;2023-03-31T07:26:38;11.20;99.90
46488;DHT22;32202;48.780;9.204;2023-03-31T07:29:03;11.30;99.90
46488;DHT22;32202;48.780;9.204;2023-03-31T07:31:29;11.40;99.90
46488;DHT22;32202;48.780;9.204;2023-03-31T07:33:54;11.40;99.90
46488;DHT22;32202;48.780;9.204;2023-03-31T07:36:20;11.40;99.90
46488;DHT22;32202;48.780;9.204;2023-03-31T07:38:46;11.30;99.90
46488;DHT22;32202;48.780;9.204;2023-03-31T07:41:14;11.40;99.90
46488;DHT22;32202;48.780;9.204;2023-03-31T07:43:40;12.10;99.90
46488;DHT22;32202;48.780;9.204;2023-03-31T07:46:06;13.70;95.50
46488;DHT22;32202;48.780;9.204;2023-03-31T07:48:38;14.70;90.70
46488;DHT22;32202;48.780;9.204;2023-03-31T07:51:03;15.90;82.50
46488;DHT22;32202;48.780;9.204;2023-03-31T07:53:29;16.90;76.30
46488;DHT22;32202;48.780;9.204;2023-03-31T07:55:55;16.70;72.90
46488;DHT22;32202;48.780;9.204;2023-03-31T07:58:20;16.80;72.70
46488;DHT22;32202;48.780;9.204;2023-03-31T08:00:46;17.90;68.80
46488;DHT22;32202;48.780;9.204;2023-03-31T08:03:11;17.70;68.00
46488;DHT22;32202;48.780;9.204;2023-03-31T08:05:36;16.80;69.10
46488;DHT22;32202;48.780;9.204;2023-03-31T08:08:02;16.80;70.80
46488;DHT22;32202;48.780;9.204;2023-03-31T08:10:28;16.70;69.30
46488;DHT22;32202;48.780;9.204;2023-03-31T08:12:53;16.90;69.90
46488;DHT22;32202;48.780;9.204;2023-03-31T08:15:20;18.50;64.50
46488;DHT22;32202;48.780;9.204;2023-03-31T08:17:45;20.30;59.70
46488;DHT22;32202;48.780;9.204;2023-03-31T08:20:11;21.10;57.60
46488;DHT22;32202;48.780;9.204;2023-03-31T08:22:37;22.40;54.90
46488;DHT22;32202;48.780;9.204;2023-03-31T08:25:03;23.80;51.00
46488;DHT22;32202;48.780;9.204;2023-03-31T08:27:33;24.10;49.60
46488;DHT22;32202;48.780;9.204;2023-03-31T08:29:58;24.70;48.90
46488;DHT22;32202;48.780;9.204;2023-03-31T08:32:27;25.60;47.50
46488;DHT22;32202;48.780;9.204;2023-03-31T08:34:52;25.90;46.80
46488;DHT22;32202;48.780;9.204;2023-03-31T08:37:18;26.90;44.50
46488;DHT22;32202;48.780;9.204;2023-03-31T08:39:44;26.70;44.80
46488;DHT22;32202;48.780;9.204;2023-03-31T08:42:12;27.40;44.50
46488;DHT22;32202;48.780;9.204;2023-03-31T08:44:55;28.40;42.60
46488;DHT22;32202;48.780;9.204;2023-03-31T08:47:23;27.50;43.80
46488;DHT22;32202;48.780;9.204;2023-03-31T08:49:50;26.80;43.40
46488;DHT22;32202;48.780;9.204;2023-03-31T08:52:26;26.60;44.10
46488;DHT22;32202;48.780;9.204;2023-03-31T08:54:54;28.40;42.30
46488;DHT22;32202;48.780;9.204;2023-03-31T08:57:25;28.10;42.50
46488;DHT22;32202;48.780;9.204;2023-03-31T08:59:53;28.30;41.90
46488;DHT22;32202;48.780;9.204;2023-03-31T09:07:53;30.50;39.40
46488;DHT22;32202;48.780;9.204;2023-03-31T09:10:25;30.90;38.50
46488;DHT22;32202;48.780;9.204;2023-03-31T09:15:43;27.40;42.30
46488;DHT22;32202;48.780;9.204;2023-03-31T09:20:38;26.90;42.70
46488;DHT22;32202;48.780;9.204;2023-03-31T09:25:46;27.80;40.30
46488;DHT22;32202;48.780;9.204;2023-03-31T09:28:18;28.70;38.60
46488;DHT22;32202;48.780;9.204;2023-03-31T09:30:44;27.70;39.40
46488;DHT22;32202;48.780;9.204;2023-03-31T09:33:18;26.90;40.00
46488;DHT22;32202;48.780;9.204;2023-03-31T09:35:44;27.20;40.30
46488;DHT22;32202;48.780;9.204;2023-03-31T09:38:13;27.50;40.10
46488;DHT22;32202;48.780;9.204;2023-03-31T09:40:38;27.40;39.70
46488;DHT22;32202;48.780;9.204;2023-03-31T09:43:05;26.10;40.80
46488;DHT22;32202;48.780;9.204;2023-03-31T09:45:31;25.00;42.60
46488;DHT22;32202;48.780;9.204;2023-03-31T09:48:00;22.60;45.60
46488;DHT22;32202;48.780;9.204;2023-03-31T09:50:26;20.60;49.40
46488;DHT22;32202;48.780;9.204;2023-03-31T09:52:57;19.50;52.00
46488;DHT22;32202;48.780;9.204;2023-03-31T09:57:50;22.10;47.50
46488;DHT22;32202;48.780;9.204;2023-03-31T10:02:49;25.50;42.20
46488;DHT22;32202;48.780;9.204;2023-03-31T10:05:57;27.00;40.40
46488;DHT22;32202;48.780;9.204;2023-03-31T10:10:43;28.50;36.80
46488;DHT22;32202;48.780;9.204;2023-03-31T10:13:09;28.50;36.90
46488;DHT22;32202;48.780;9.204;2023-03-31T10:15:38;29.40;36.80
46488;DHT22;32202;48.780;9.204;2023-03-31T10:18:03;31.70;34.90
46488;DHT22;32202;48.780;9.204;2023-03-31T10:20:31;31.10;33.90
46488;DHT22;32202;48.780;9.204;2023-03-31T10:23:01;31.40;34.10
46488;DHT22;32202;48.780;9.204;2023-03-31T10:25:27;30.50;34.50
46488;DHT22;32202;48.780;9.204;2023-03-31T10:27:53;30.70;34.30
46488;DHT22;32202;48.780;9.204;2023-03-31T10:30:26;31.90;33.70
46488;DHT22;32202;48.780;9.204;2023-03-31T10:32:54;31.50;33.10
46488;DHT22;32202;48.780;9.204;2023-03-31T10:35:30;28.40;35.20
46488;DHT22;32202;48.780;9.204;2023-03-31T10:37:58;27.60;36.30
46488;DHT22;32202;48.780;9.204;2023-03-31T10:40:25;29.20;35.30
46488;DHT22;32202;48.780;9.204;2023-03-31T10:43:02;29.60;34.50
46488;DHT22;32202;48.780;9.204;2023-03-31T10:45:30;29.10;35.30
46488;DHT22;32202;48.780;9.204;2023-03-31T10:48:00;29.60;34.50
46488;DHT22;32202;48.780;9.204;2023-03-31T10:50:27;30.60;33.90
46488;DHT22;32202;48.780;9.204;2023-03-31T10:52:54;30.10;34.00
46488;DHT22;32202;48.780;9.204;2023-03-31T10:55:26;29.80;33.90
46488;DHT22;32202;48.780;9.204;2023-03-31T11:00:53;28.20;34.90
46488;DHT22;32202;48.780;9.204;2023-03-31T11:06:16;26.10;35.70
46488;DHT22;32202;48.780;9.204;2023-03-31T11:14:07;22.20;41.30
46488;DHT22;32202;48.780;9.204;2023-03-31T11:16:51;21.60;42.20
46488;DHT22;32202;48.780;9.204;2023-03-31T11:27:23;18.90;53.10
46488;DHT22;32202;48.780;9.204;2023-03-31T11:32:35;16.00;63.80
46488;DHT22;32202;48.780;9.204;2023-03-31T11:37:46;14.80;65.90
46488;DHT22;32202;48.780;9.204;2023-03-31T11:45:28;14.40;67.60
46488;DHT22;32202;48.780;9.204;2023-03-31T11:47:58;14.30;69.30
46488;DHT22;32202;48.780;9.204;2023-03-31T11:50:28;14.10;69.20
46488;DHT22;32202;48.780;9.204;2023-03-31T11:53:02;14.20;70.30
46488;DHT22;32202;48.780;9.204;2023-03-31T11:55:32;14.00;70.20
46488;DHT22;32202;48.780;9.204;2023-03-31T11:58:01;14.20;69.40
46488;DHT22;32202;48.780;9.204;2023-03-31T12:00:35;14.30;67.90
46488;DHT22;32202;48.780;9.204;2023-03-31T12:03:12;14.60;66.20
46488;DHT22;32202;48.780;9.204;2023-03-31T12:05:41;15.00;66.90
46488;DHT22;32202;48.780;9.204;2023-03-31T12:08:13;15.80;65.50
46488;DHT22;32202;48.780;9.204;2023-03-31T12:10:42;17.30;61.60
46488;DHT22;32202;48.780;9.204;2023-03-31T12:15:38;22.30;50.50
46488;DHT22;32202;48.780;9.204;2023-03-31T12:18:09;23.90;46.10
46488;DHT22;32202;48.780;9.204;2023-03-31T12:20:36;25.00;43.50
46488;DHT22;32202;48.780;9.204;2023-03-31T12:23:05;25.00;42.40
46488;DHT22;32202;48.780;9.204;2023-03-31T12:25:47;23.00;44.80
46488;DHT22;32202;48.780;9.204;2023-03-31T12:28:14;23.00;46.30
46488;DHT22;32202;48.780;9.204;2023-03-31T12:30:41;23.30;44.80
46488;DHT22;32202;48.780;9.204;2023-03-31T12:41:09;23.60;43.20
46488;DHT22;32202;48.780;9.204;2023-03-31T12:49:04;25.60;41.10
46488;DHT22;32202;48.780;9.204;2023-03-31T12:51:42;25.20;40.30
46488;DHT22;32202;48.780;9.204;2023-03-31T12:59:27;25.80;40.30
46488;DHT22;32202;48.780;9.204;2023-03-31T13:04:37;26.40;39.10
46488;DHT22;32202;48.780;9.204;2023-03-31T13:07:03;24.60;41.50
46488;DHT22;32202;48.780;9.204;2023-03-31T13:11:57;23.80;42.20
46488;DHT22;32202;48.780;9.204;2023-03-31T13:16:48;23.40;42.80
46488;DHT22;32202;48.780;9.204;2023-03-31T13:22:28;21.10;47.90
46488;DHT22;32202;48.780;9.204;2023-03-31T13:27:47;18.60;53.80
46488;DHT22;32202;48.780;9.204;2023-03-31T13:30:59;17.80;57.10
46488;DHT22;32202;48.780;9.204;2023-03-31T13:33:09;17.60;57.50
46488;DHT22;32202;48.780;9.204;2023-03-31T13:35:35;17.60;58.40
46488;DHT22;32202;48.780;9.204;2023-03-31T13:40:43;17.30;60.10
46488;DHT22;32202;48.780;9.204;2023-03-31T13:43:22;17.00;59.90
46488;DHT22;32202;48.780;9.204;2023-03-31T13:48:43;16.20;60.20
46488;DHT22;32202;48.780;9.204;2023-03-31T13:56:43;15.00;65.70
46488;DHT22;32202;48.780;9.204;2023-03-31T14:06:58;14.20;70.50
46488;DHT22;32202;48.780;9.204;2023-03-31T14:09:29;14.00;70.00
46488;DHT22;32202;48.780;9.204;2023-03-31T14:11:59;13.80;71.10
46488;DHT22;32202;48.780;9.204;2023-03-31T14:14:25;13.60;72.30
46488;DHT22;32202;48.780;9.204;2023-03-31T14:16:52;14.20;71.60
46488;DHT22;32202;48.780;9.204;2023-03-31T14:24:30;18.40;58.40
46488;DHT22;32202;48.780;9.204;2023-03-31T14:34:53;19.30;53.30
46488;DHT22;32202;48.780;9.204;2023-03-31T14:37:22;18.30;55.10
46488;DHT22;32202;48.780;9.204;2023-03-31T14:39:50;18.00;58.00
46488;DHT22;32202;48.780;9.204;2023-03-31T14:42:18;17.90;56.10
46488;DHT22;32202;48.780;9.204;2023-03-31T14:44:44;18.30;57.60
46488;DHT22;32202;48.780;9.204;2023-03-31T14:47:28;18.50;54.90
46488;DHT22;32202;48.780;9.204;2023-03-31T14:50:27;18.20;55.80
46488;DHT22;32202;48.780;9.204;2023-03-31T14:52:46;18.40;55.10
46488;DHT22;32202;48.780;9.204;2023-03-31T14:55:13;17.90;56.40
46488;DHT22;32202;48.780;9.204;2023-03-31T14:57:38;17.60;57.10
46488;DHT22;32202;48.780;9.204;2023-03-31T15:00:06;17.10;59.00
46488;DHT22;32202;48.780;9.204;2023-03-31T15:02:33;16.80;58.80
46488;DHT22;32202;48.780;9.204;2023-03-31T15:05:06;16.60;60.00
46488;DHT22;32202;48.780;9.204;2023-03-31T15:07:34;16.40;61.60
46488;DHT22;32202;48.780;9.204;2023-03-31T15:10:00;16.30;61.40
46488;DHT22;32202;48.780;9.204;2023-03-31T15:12:26;16.40;61.60
46488;DHT22;32202;48.780;9.204;2023-03-31T15:15:04;16.00;63.00
46488;DHT22;32202;48.780;9.204;2023-03-31T15:17:35;15.70;63.10
46488;DHT22;32202;48.780;9.204;2023-03-31T15:20:01;15.20;65.30
46488;DHT22;32202;48.780;9.204;2023-03-31T15:22:44;15.20;65.10
46488;DHT22;32202;48.780;9.204;2023-03-31T15:25:13;15.20;65.00
46488;DHT22;32202;48.780;9.204;2023-03-31T15:27:45;15.10;65.20
46488;DHT22;32202;48.780;9.204;2023-03-31T15:30:16;15.20;65.30
46488;DHT22;32202;48.780;9.204;2023-03-31T15:32:43;15.10;65.90
46488;DHT22;32202;48.780;9.204;2023-03-31T15:37:46;15.10;64.80
46488;DHT22;32202;48.780;9.204;2023-03-31T15:40:28;15.10;65.80
46488;DHT22;32202;48.780;9.204;2023-03-31T15:42:55;15.10;65.10
46488;DHT22;32202;48.780;9.204;2023-03-31T15:47:53;15.10;65.70
46488;DHT22;32202;48.780;9.204;2023-03-31T15:50:23;15.10;65.60
46488;DHT22;32202;48.780;9.204;2023-03-31T15:52:52;15.10;65.30
46488;DHT22;32202;48.780;9.204;2023-03-31T15:55:25;15.10;65.40
46488;DHT22;32202;48.780;9.204;2023-03-31T15:57:53;15.10;65.70
46488;DHT22;32202;48.780;9.204;2023-03-31T16:03:13;15.20;64.50
46488;DHT22;32202;48.780;9.204;2023-03-31T16:05:41;15.10;64.20
46488;DHT22;32202;48.780;9.204;2023-03-31T16:08:35;14.90;65.00
46488;DHT22;32202;48.780;9.204;2023-03-31T16:11:01;14.80;65.20
46488;DHT22;32202;48.780;9.204;2023-03-31T16:13:27;14.70;64.90
46488;DHT22;32202;48.780;9.204;2023-03-31T16:15:54;14.70;65.40
46488;DHT22;32202;48.780;9.204;2023-03-31T16:18:25;14.60;66.30
46488;DHT22;32202;48.780;9.204;2023-03-31T16:20:54;14.60;64.90
46488;DHT22;32202;48.780;9.204;2023-03-31T16:23:24;14.50;64.80
46488;DHT22;32202;48.780;9.204;2023-03-31T16:25:50;14.30;65.10
46488;DHT22;32202;48.780;9.204;2023-03-31T16:28:17;14.20;66.00
46488;DHT22;32202;48.780;9.204;2023-03-31T16:30:44;14.00;66.40
46488;DHT22;32202;48.780;9.204;2023-03-31T16:33:10;13.90;66.50
46488;DHT22;32202;48.780;9.204;2023-03-31T16:35:38;13.80;67.10
46488;DHT22;32202;48.780;9.204;2023-03-31T16:38:05;13.70;67.60
46488;DHT22;32202;48.780;9.204;2023-03-31T16:40:33;13.70;68.50
46488;DHT22;32202;48.780;9.204;2023-03-31T16:45:34;13.50;69.00
46488;DHT22;32202;48.780;9.204;2023-03-31T16:48:01;13.30;70.40
46488;DHT22;32202;48.780;9.204;2023-03-31T16:50:26;13.20;71.00
46488;DHT22;32202;48.780;9.204;2023-03-31T16:52:52;13.20;70.80
46488;DHT22;32202;48.780;9.204;2023-03-31T16:55:17;13.10;71.40
46488;DHT22;32202;48.780;9.204;2023-03-31T16:57:43;13.10;71.40
46488;DHT22;32202;48.780;9.204;2023-03-31T17:00:08;13.00;71.70
46488;DHT22;32202;48.780;9.204;2023-03-31T17:02:35;12.90;72.10
46488;DHT22;32202;48.780;9.204;2023-03-31T17:05:00;12.70;72.90
46488;DHT22;32202;48.780;9.204;2023-03-31T17:07:26;12.60;72.50
46488;DHT22;32202;48.780;9.204;2023-03-31T17:09:51;12.50;73.10
46488;DHT22;32202;48.780;9.204;2023-03-31T17:12:17;12.40;74.10
46488;DHT22;32202;48.780;9.204;2023-03-31T17:14:42;12.20;74.50
46488;DHT22;32202;48.780;9.204;2023-03-31T17:17:08;12.20;74.20
46488;DHT22;32202;48.780;9.204;2023-03-31T17:19:34;12.30;74.70
46488;DHT22;32202;48.780;9.204;2023-03-31T17:21:59;12.20;74.60
46488;DHT22;32202;48.780;9.204;2023-03-31T17:24:26;12.10;75.10
46488;DHT22;32202;48.780;9.204;2023-03-31T17:26:51;12.10;74.90
46488;DHT22;32202;48.780;9.204;2023-03-31T17:29:17;12.00;75.80
46488;DHT22;32202;48.780;9.204;2023-03-31T17:31:43;12.00;76.00
46488;DHT22;32202;48.780;9.204;2023-03-31T17:34:08;12.00;76.20
46488;DHT22;32202;48.780;9.204;2023-03-31T17:36:34;12.00;76.80
46488;DHT22;32202;48.780;9.204;2023-03-31T17:39:01;12.00;77.80
46488;DHT22;32202;48.780;9.204;2023-03-31T17:41:26;12.00;78.40
46488;DHT22;32202;48.780;9.204;2023-03-31T17:43:53;12.00;78.70
46488;DHT22;32202;48.780;9.204;2023-03-31T17:46:19;12.00;79.10
46488;DHT22;32202;48.780;9.204;2023-03-31T17:48:45;12.00;79.70
46488;DHT22;32202;48.780;9.204;2023-03-31T17:51:12;12.00;79.80
46488;DHT22;32202;48.780;9.204;2023-03-31T17:53:39;12.00;80.10
46488;DHT22;32202;48.780;9.204;2023-03-31T17:56:05;11.80;81.90
46488;DHT22;32202;48.780;9.204;2023-03-31T17:58:31;11.80;82.30
46488;DHT22;32202;48.780;9.204;2023-03-31T18:00:56;11.90;82.30
46488;DHT22;32202;48.780;9.204;2023-03-31T18:03:22;11.90;82.60
46488;DHT22;32202;48.780;9.204;2023-03-31T18:05:48;12.00;82.80
46488;DHT22;32202;48.780;9.204;2023-03-31T18:08:13;12.00;82.80
46488;DHT22;32202;48.780;9.204;2023-03-31T18:10:40;12.00;83.30
46488;DHT22;32202;48.780;9.204;2023-03-31T18:13:07;12.10;84.30
46488;DHT22;32202;48.780;9.204;2023-03-31T18:15:32;12.10;85.80
46488;DHT22;32202;48.780;9.204;2023-03-31T18:17:58;12.10;87.40